Heat Index [SAI AWOS/ASOS Display]_________FAA Disclaimer: "Not for use in aviation at this time______________" Untitled Document
Potsdam Municipal/ Damon Field (PTD)
030
15:00
17/04/24
09
N/A
010V090
30.26
N/A
47403/26
45(F), 7(C)
33(F), 1(C)
40 F
65%
CLR
10
N/A
N/A
N/A
15:00 Zulu Wind 030 at 09 Knots, Altimeter 30.26
METAR KPTD 241500Z AUTO 03009KT 010V090 10SM CLR 07/01 A3026 A02
METAR:
FAA Disclaimer--Advisory Use ONLY, not for flight info-- 1/17/2017: Current fuel prices are $4.34 per gallon for 100LL, and $3.55 per gallon for Jet A. AWOS phone 315-265-6106 updated 09/18/2014
INFO:
Wind Direction:
Wind Speed:
Wind Gust:
Wind Variable:
Altimeter:
Dens Alt:
Elev:
Temp:
Dwpt:
Wind Chill
Rel Humidity:
Ceiling:
Visibility:
Prsnt Wea:
PCPN:
Remarks:
How to read the WebPage